< < Back
Terminal Aerodrome Forecast


Current Version              Previous Versions:   1  2  3  4  5  6  7  8  9  

Terminal Aerodrome Forecast

540
FTUS42 KJAX 172300
TAFSSI
TAF
KSSI 172325Z 1800/1824 05014G22KT P6SM OVC015
     FM181400 07017G26KT 5SM -RA BR OVC009
     FM182000 07016G26KT 2SM RA BR OVC007=



Latest METAR

399
SAUS70 KWBC 180000
MTRSSI
METAR KSSI 172353Z AUTO 04016G22KT 10SM OVC049 17/13 A3030 RMK AO2
SLP260 60000 T01670133 10178 20156 50002 PWINO $


USA.gov is the U.S. government's official web portal to all federal, state and local government web resources and services.